Time;durP1;ratioP1;P1;durP2;ratioP2;P2;SDS_P1;SDS_P2;PMS_P1;PMS_P2;Temp;Humidity;BMP_temperature;BMP_pressure;BME280_temperature;BME280_humidity;BME280_pressure;Samples;Min_cycle;Max_cycle;Signal;HPM_P1;HPM_P2
2021/04/26 00:01:52;;;;;;;2.35;1.30;;;4.80;99.90;;;;;;4391384;32;20069;-59
2021/04/26 00:04:19;;;;;;;3.90;1.77;;;4.80;99.90;;;;;;4392063;32;20069;-59
2021/04/26 00:06:45;;;;;;;4.90;2.00;;;4.90;99.90;;;;;;4367128;32;20090;-59
2021/04/26 00:09:12;;;;;;;2.53;1.83;;;4.90;99.90;;;;;;4367085;32;20074;-59
2021/04/26 00:11:38;;;;;;;5.85;2.30;;;4.90;99.90;;;;;;4393219;32;20480;-61
2021/04/26 00:14:05;;;;;;;2.22;1.50;;;5.10;99.90;;;;;;4392246;32;20069;-62
2021/04/26 00:16:32;;;;;;;3.85;1.83;;;5.10;99.90;;;;;;4392077;32;20421;-60
2021/04/26 00:18:59;;;;;;;1.98;1.50;;;5.10;99.90;;;;;;4354322;32;20089;-61
2021/04/26 00:21:25;;;;;;;5.37;1.75;;;5.10;99.90;;;;;;4378840;32;20086;-60
2021/04/26 00:23:51;;;;;;;2.83;1.73;;;5.10;99.90;;;;;;4391225;32;20062;-59
2021/04/26 00:26:17;;;;;;;3.33;1.80;;;5.10;99.90;;;;;;4392482;32;20081;-61
2021/04/26 00:28:44;;;;;;;2.05;1.67;;;5.10;99.90;;;;;;4390953;32;20070;-60
2021/04/26 00:31:10;;;;;;;4.95;1.62;;;5.10;99.90;;;;;;4366217;32;20512;-60
2021/04/26 00:33:36;;;;;;;3.75;2.80;;;5.10;99.90;;;;;;4379258;32;20081;-60
2021/04/26 00:36:02;;;;;;;2.33;1.67;;;5.10;99.90;;;;;;4392453;32;20136;-60
2021/04/26 00:38:29;;;;;;;2.33;1.85;;;5.10;99.90;;;;;;4391220;32;20058;-60
2021/04/26 00:40:55;;;;;;;1.75;1.33;;;4.90;99.90;;;;;;4378621;32;20074;-60
2021/04/26 00:43:21;;;;;;;4.00;1.90;;;5.00;99.90;;;;;;4391269;32;20211;-59
2021/04/26 00:45:47;;;;;;;3.72;1.80;;;5.00;99.90;;;;;;4378313;32;20076;-60
2021/04/26 00:48:13;;;;;;;3.75;1.33;;;4.80;99.90;;;;;;4391603;32;20070;-61
2021/04/26 00:50:40;;;;;;;2.10;1.42;;;4.60;99.90;;;;;;4391398;32;20078;-60
2021/04/26 00:53:06;;;;;;;1.85;1.20;;;4.50;99.90;;;;;;4391147;32;20093;-60
2021/04/26 00:55:34;;;;;;;2.55;1.30;;;4.40;99.90;;;;;;4378058;32;20057;-59
2021/04/26 00:58:02;;;;;;;2.92;1.52;;;4.50;99.90;;;;;;4378159;32;20174;-60
2021/04/26 01:00:29;;;;;;;2.80;1.67;;;4.50;99.90;;;;;;4366598;32;20097;-60
2021/04/26 01:02:55;;;;;;;2.58;1.70;;;4.50;99.90;;;;;;4353480;32;20152;-59
2021/04/26 01:05:24;;;;;;;4.45;1.67;;;4.50;99.90;;;;;;4390947;32;20070;-60
2021/04/26 01:07:50;;;;;;;2.83;1.70;;;4.60;99.90;;;;;;4365905;32;20076;-59
2021/04/26 01:10:23;;;;;;;2.67;1.45;;;4.70;99.90;;;;;;4391890;32;20070;-60
2021/04/26 01:13:14;;;;;;;2.42;1.70;;;4.70;99.90;;;;;;4366053;32;20477;-59
2021/04/26 01:16:16;;;;;;;2.83;1.52;;;4.70;99.90;;;;;;4352457;32;20102;-59
2021/04/26 01:19:23;;;;;;;3.53;1.87;;;4.50;99.90;;;;;;4350860;32;20074;-60
2021/04/26 01:22:23;;;;;;;3.05;1.62;;;4.50;99.90;;;;;;4390314;32;20161;-60
2021/04/26 01:25:22;;;;;;;4.32;2.20;;;4.50;99.90;;;;;;4377900;32;20506;-59
2021/04/26 01:28:12;;;;;;;1.42;1.20;;;4.40;99.90;;;;;;4367736;32;20529;-59
2021/04/26 01:30:53;;;;;;;3.35;1.80;;;4.30;99.90;;;;;;4376187;32;20058;-62
2021/04/26 01:33:24;;;;;;;3.30;1.50;;;4.30;99.90;;;;;;4364240;32;20066;-59
2021/04/26 01:35:52;;;;;;;2.10;1.42;;;4.20;99.90;;;;;;4363512;32;20085;-60
2021/04/26 01:38:25;;;;;;;4.25;1.73;;;4.20;99.90;;;;;;4375494;32;20071;-60
2021/04/26 01:40:53;;;;;;;3.45;1.60;;;4.20;99.90;;;;;;4363431;32;20469;-60
2021/04/26 01:43:22;;;;;;;2.60;1.70;;;4.10;99.90;;;;;;4362788;32;20077;-61
2021/04/26 01:45:53;;;;;;;3.05;1.95;;;4.20;99.90;;;;;;4350423;32;20143;-60
2021/04/26 01:48:20;;;;;;;3.42;2.03;;;4.30;99.90;;;;;;4363364;32;20499;-59
2021/04/26 01:50:46;;;;;;;2.75;1.87;;;4.20;99.90;;;;;;4362756;32;20105;-60
2021/04/26 01:53:12;;;;;;;2.60;1.73;;;4.20;99.90;;;;;;4350495;32;20096;-60
2021/04/26 01:55:38;;;;;;;3.55;2.12;;;4.20;99.90;;;;;;4362635;32;20158;-59
2021/04/26 01:58:04;;;;;;;3.78;1.90;;;4.20;99.90;;;;;;4371918;32;20078;-60
2021/04/26 02:00:32;;;;;;;3.37;2.15;;;4.20;99.90;;;;;;4377383;32;20074;-60
2021/04/26 02:02:59;;;;;;;4.82;2.08;;;4.10;99.90;;;;;;4365139;32;20076;-59
2021/04/26 02:05:26;;;;;;;3.72;1.92;;;4.20;99.90;;;;;;4364702;32;20074;-60
2021/04/26 02:07:53;;;;;;;3.28;2.17;;;4.20;99.90;;;;;;4365349;32;20493;-59
2021/04/26 02:10:22;;;;;;;2.80;1.90;;;4.20;99.90;;;;;;4340707;32;20106;-59
2021/04/26 02:12:49;;;;;;;3.37;2.22;;;4.30;99.90;;;;;;4393396;32;20073;-61
2021/04/26 02:15:19;;;;;;;3.35;1.92;;;4.30;99.90;;;;;;4369121;32;20078;-60
2021/04/26 02:17:47;;;;;;;3.55;2.22;;;4.30;99.90;;;;;;4352708;32;20074;-60
2021/04/26 02:20:15;;;;;;;2.60;1.85;;;4.40;99.90;;;;;;4375704;32;20066;-60
2021/04/26 02:22:42;;;;;;;5.90;2.37;;;4.50;99.90;;;;;;4375550;32;20064;-63
2021/04/26 02:25:11;;;;;;;5.40;2.70;;;4.50;99.90;;;;;;4350249;32;20085;-59
2021/04/26 02:27:37;;;;;;;5.07;2.58;;;4.50;99.90;;;;;;4362358;32;20091;-60
2021/04/26 02:30:05;;;;;;;4.70;2.47;;;4.60;99.90;;;;;;4337984;32;20165;-60
2021/04/26 02:33:14;;;;;;;5.00;2.67;;;4.50;99.90;;;;;;4349819;32;20149;-60
2021/04/26 02:36:13;;;;;;;4.45;2.80;;;4.50;99.90;;;;;;4355658;32;20227;-59
2021/04/26 02:38:43;;;;;;;7.10;2.87;;;4.60;99.90;;;;;;4377987;32;20069;-60
2021/04/26 02:41:13;;;;;;;6.30;3.12;;;4.60;99.90;;;;;;4379049;32;20157;-59
2021/04/26 02:43:45;;;;;;;4.07;2.50;;;4.60;99.90;;;;;;4365724;32;20090;-60
2021/04/26 02:46:12;;;;;;;4.45;2.70;;;4.70;99.90;;;;;;4377647;32;20081;-60
2021/04/26 02:48:41;;;;;;;4.75;2.70;;;4.70;99.90;;;;;;4353129;32;20090;-61
2021/04/26 02:51:07;;;;;;;4.10;2.60;;;4.80;99.90;;;;;;4377691;32;20070;-60
2021/04/26 02:53:34;;;;;;;4.75;3.00;;;4.70;99.90;;;;;;4377532;32;20094;-59
2021/04/26 02:56:13;;;;;;;5.03;2.80;;;4.70;99.90;;;;;;4352393;32;20512;-60
2021/04/26 02:58:40;;;;;;;4.65;2.62;;;4.80;99.90;;;;;;4390080;32;20080;-60
2021/04/26 03:01:07;;;;;;;4.05;2.60;;;4.80;99.90;;;;;;4355821;32;20066;-59
2021/04/26 03:03:35;;;;;;;4.40;2.60;;;4.90;99.90;;;;;;4367930;32;20233;-60
2021/04/26 03:06:01;;;;;;;4.03;2.40;;;4.80;99.90;;;;;;4343170;32;20508;-61
2021/04/26 03:08:29;;;;;;;7.53;2.87;;;4.80;99.90;;;;;;4367293;32;20166;-59
2021/04/26 03:10:55;;;;;;;3.78;2.12;;;4.80;99.90;;;;;;4380049;32;20497;-61
2021/04/26 03:13:21;;;;;;;3.87;2.42;;;4.80;99.90;;;;;;4367508;32;20267;-59
2021/04/26 03:15:47;;;;;;;7.00;2.37;;;4.90;99.90;;;;;;4393331;32;20512;-60
2021/04/26 03:18:14;;;;;;;6.75;2.50;;;4.80;99.90;;;;;;4396865;32;20156;-59
2021/04/26 03:20:41;;;;;;;5.22;2.62;;;4.90;99.90;;;;;;4369806;32;20159;-59
2021/04/26 03:23:09;;;;;;;4.60;2.50;;;4.80;99.90;;;;;;4369934;32;20158;-59
2021/04/26 03:25:35;;;;;;;6.05;2.83;;;4.90;99.90;;;;;;4370611;32;20078;-60
2021/04/26 03:28:02;;;;;;;4.78;2.80;;;4.90;99.90;;;;;;4371423;32;20074;-60
2021/04/26 03:30:28;;;;;;;5.32;3.20;;;5.10;99.90;;;;;;4371137;32;20069;-59
2021/04/26 03:32:55;;;;;;;8.07;3.33;;;5.10;99.90;;;;;;4358926;32;20090;-60
2021/04/26 03:35:22;;;;;;;7.68;3.90;;;5.10;99.90;;;;;;4370926;32;20527;-60
2021/04/26 03:37:49;;;;;;;7.85;3.83;;;5.10;99.90;;;;;;4382126;32;20581;-60
2021/04/26 03:40:21;;;;;;;8.00;4.10;;;5.10;99.90;;;;;;4379954;32;20086;-59
2021/04/26 03:42:48;;;;;;;9.10;4.72;;;5.20;99.90;;;;;;4392418;32;20092;-60
2021/04/26 03:45:15;;;;;;;10.23;4.68;;;5.20;99.90;;;;;;4380210;32;20452;-59
2021/04/26 03:47:45;;;;;;;9.98;5.57;;;5.30;99.90;;;;;;4368091;32;20069;-59
2021/04/26 03:50:12;;;;;;;12.80;6.68;;;5.40;99.90;;;;;;4367412;32;20073;-59
2021/04/26 03:52:39;;;;;;;10.52;7.22;;;5.40;99.90;;;;;;4391761;32;20567;-59
2021/04/26 03:55:07;;;;;;;9.68;6.07;;;5.50;99.90;;;;;;4366850;32;20528;-60
2021/04/26 03:57:33;;;;;;;10.73;6.40;;;5.30;99.90;;;;;;4363963;32;20085;-59
2021/04/26 03:59:59;;;;;;;10.73;5.93;;;5.40;99.90;;;;;;4339757;32;20078;-59
2021/04/26 04:02:27;;;;;;;9.35;5.47;;;5.40;99.90;;;;;;4366144;32;20570;-61
2021/04/26 04:04:55;;;;;;;8.45;5.60;;;5.70;99.90;;;;;;4353138;32;20074;-61
2021/04/26 04:07:22;;;;;;;9.23;5.57;;;5.70;99.90;;;;;;4364587;32;20073;-59
2021/04/26 04:09:48;;;;;;;7.20;4.78;;;5.80;99.90;;;;;;4378490;32;20081;-60
2021/04/26 04:12:14;;;;;;;9.93;4.43;;;6.00;99.50;;;;;;4364099;32;20157;-60
2021/04/26 04:14:41;;;;;;;7.35;4.20;;;6.00;99.40;;;;;;4361839;32;20079;-60
2021/04/26 04:17:07;;;;;;;6.30;3.72;;;5.90;99.60;;;;;;4391524;32;20066;-59
2021/04/26 04:19:33;;;;;;;9.40;4.28;;;5.80;99.10;;;;;;4391361;32;20070;-61
2021/04/26 04:22:00;;;;;;;9.55;4.07;;;5.90;99.00;;;;;;4391193;32;20491;-59
2021/04/26 04:24:26;;;;;;;6.05;3.83;;;6.00;98.00;;;;;;4392761;32;20073;-59
2021/04/26 04:26:52;;;;;;;7.07;3.97;;;6.20;97.30;;;;;;4391399;32;20070;-60
2021/04/26 04:29:20;;;;;;;5.87;3.92;;;6.40;95.90;;;;;;4358071;32;20161;-60
2021/04/26 04:31:46;;;;;;;10.02;4.65;;;6.40;95.70;;;;;;4364779;32;20089;-59
2021/04/26 04:34:13;;;;;;;8.90;4.30;;;6.20;96.70;;;;;;4351500;32;20096;-60
2021/04/26 04:36:39;;;;;;;8.70;4.40;;;6.10;97.80;;;;;;4363660;32;20082;-61
2021/04/26 04:39:05;;;;;;;8.75;4.70;;;6.20;97.60;;;;;;4376212;32;20070;-61
2021/04/26 04:41:32;;;;;;;9.27;4.75;;;6.30;96.60;;;;;;4351549;32;20078;-60
2021/04/26 04:44:00;;;;;;;7.72;4.25;;;7.50;90.20;;;;;;4363407;32;20147;-60
2021/04/26 04:46:27;;;;;;;7.95;4.50;;;8.40;75.50;;;;;;4351865;32;20501;-60
2021/04/26 04:48:54;;;;;;;7.82;4.82;;;8.60;73.30;;;;;;4339267;32;20089;-60
2021/04/26 04:51:20;;;;;;;7.22;4.85;;;8.10;72.50;;;;;;4363344;32;20110;-60
2021/04/26 04:53:47;;;;;;;9.27;5.00;;;8.60;69.90;;;;;;4354402;32;20073;-61
2021/04/26 04:56:14;;;;;;;9.20;5.15;;;8.80;68.50;;;;;;4343130;32;20089;-60
2021/04/26 04:58:40;;;;;;;7.35;4.75;;;8.70;70.80;;;;;;4353983;32;20078;-61
2021/04/26 05:01:07;;;;;;;10.13;4.85;;;9.20;67.20;;;;;;4339033;32;20171;-61
2021/04/26 05:03:33;;;;;;;8.60;4.87;;;8.70;69.20;;;;;;4376625;32;20085;-64
2021/04/26 05:05:59;;;;;;;7.32;4.72;;;8.90;67.90;;;;;;4377028;32;20068;-62
2021/04/26 05:08:26;;;;;;;5.80;4.18;;;9.20;66.30;;;;;;4378402;32;20482;-62
2021/04/26 05:10:52;;;;;;;9.32;4.35;;;8.90;66.20;;;;;;4381487;32;20070;-59
2021/04/26 05:13:18;;;;;;;6.32;4.00;;;9.70;60.50;;;;;;4392807;32;20066;-62
2021/04/26 05:15:44;;;;;;;7.80;4.93;;;9.90;60.80;;;;;;4351929;32;20085;-59
2021/04/26 05:18:11;;;;;;;6.75;4.05;;;9.90;59.50;;;;;;4375620;32;20081;-60
2021/04/26 05:20:39;;;;;;;9.13;5.40;;;10.10;57.50;;;;;;4375477;32;20113;-63
2021/04/26 05:23:06;;;;;;;7.15;4.18;;;10.10;56.10;;;;;;4351096;32;20455;-62
2021/04/26 05:25:32;;;;;;;6.35;4.47;;;9.80;58.00;;;;;;4374240;32;20089;-62
2021/04/26 05:27:58;;;;;;;8.27;5.10;;;10.10;56.10;;;;;;4381161;32;20062;-63
2021/04/26 05:30:25;;;;;;;8.13;4.65;;;10.10;55.00;;;;;;4390646;32;20221;-63
2021/04/26 05:32:51;;;;;;;9.70;4.45;;;10.90;52.40;;;;;;4374811;32;20095;-60
2021/04/26 05:35:20;;;;;;;7.35;4.22;;;10.80;52.30;;;;;;4364465;32;20157;-63
2021/04/26 05:37:46;;;;;;;5.28;3.53;;;10.40;53.10;;;;;;4363393;32;20062;-62
2021/04/26 05:40:13;;;;;;;6.47;3.83;;;10.90;52.30;;;;;;4377691;32;20143;-62
2021/04/26 05:42:39;;;;;;;6.82;4.12;;;10.90;53.60;;;;;;4390276;32;20070;-61
2021/04/26 05:45:07;;;;;;;8.50;4.03;;;10.30;52.10;;;;;;4365973;32;20272;-61
2021/04/26 05:47:35;;;;;;;7.28;4.45;;;11.20;51.50;;;;;;4366874;32;20510;-61
2021/04/26 05:50:02;;;;;;;6.95;4.22;;;11.00;50.00;;;;;;4377637;32;20074;-63
2021/04/26 05:52:29;;;;;;;7.28;3.78;;;11.30;50.50;;;;;;4377912;32;20057;-60
2021/04/26 05:54:55;;;;;;;5.85;3.62;;;11.10;50.30;;;;;;4390437;32;20077;-61
2021/04/26 05:57:21;;;;;;;7.12;4.00;;;11.10;50.70;;;;;;4375731;32;20142;-61
2021/04/26 05:59:47;;;;;;;6.60;3.90;;;11.10;50.50;;;;;;4362596;32;20086;-61
2021/04/26 06:02:13;;;;;;;8.32;5.00;;;11.90;47.30;;;;;;4350214;32;20174;-61
2021/04/26 06:04:40;;;;;;;7.20;4.30;;;11.00;50.80;;;;;;4362915;32;20058;-60
2021/04/26 06:07:06;;;;;;;5.12;3.60;;;11.50;47.70;;;;;;4362376;32;20082;-60
2021/04/26 06:09:32;;;;;;;8.75;4.28;;;11.60;47.60;;;;;;4362347;32;20145;-61
2021/04/26 06:11:59;;;;;;;8.48;4.75;;;11.70;45.50;;;;;;4374242;32;20074;-62
2021/04/26 06:14:25;;;;;;;7.68;5.00;;;11.30;46.10;;;;;;4356202;32;20082;-61
2021/04/26 06:16:51;;;;;;;7.22;3.62;;;11.80;46.20;;;;;;4362629;32;20162;-61
2021/04/26 06:19:17;;;;;;;7.45;4.10;;;12.00;45.50;;;;;;4362218;32;20151;-62
2021/04/26 06:21:43;;;;;;;7.00;3.65;;;10.70;49.30;;;;;;4362586;32;20445;-61
2021/04/26 06:24:09;;;;;;;6.37;3.17;;;11.10;49.70;;;;;;4374833;32;20119;-61
2021/04/26 06:26:36;;;;;;;7.18;3.20;;;10.50;50.60;;;;;;4362950;32;20464;-61
2021/04/26 06:29:02;;;;;;;6.72;3.87;;;11.30;49.10;;;;;;4362603;32;20094;-62
2021/04/26 06:31:28;;;;;;;7.62;4.72;;;10.50;50.40;;;;;;4338184;32;20182;-61
2021/04/26 06:33:55;;;;;;;7.35;3.92;;;10.50;51.10;;;;;;4374999;32;20088;-60
2021/04/26 06:36:21;;;;;;;9.18;4.28;;;10.70;49.70;;;;;;4375159;32;20090;-60
2021/04/26 06:38:47;;;;;;;6.70;3.55;;;11.10;49.40;;;;;;4363099;32;20439;-61
2021/04/26 06:41:13;;;;;;;6.97;3.17;;;10.70;47.10;;;;;;4376299;32;20092;-61
2021/04/26 06:43:39;;;;;;;5.65;3.40;;;10.80;48.00;;;;;;4361802;32;20063;-62
2021/04/26 06:46:05;;;;;;;7.25;3.67;;;11.10;47.50;;;;;;4375005;32;20520;-61
2021/04/26 06:48:34;;;;;;;5.82;3.03;;;10.80;46.00;;;;;;4374311;32;20069;-60
2021/04/26 06:51:00;;;;;;;7.62;2.80;;;11.00;45.20;;;;;;4362119;32;20187;-62
2021/04/26 06:53:26;;;;;;;10.73;3.53;;;11.10;45.30;;;;;;4374817;32;20161;-60
2021/04/26 06:55:53;;;;;;;4.65;3.30;;;11.50;43.60;;;;;;4374556;32;20442;-61
2021/04/26 06:58:21;;;;;;;7.85;2.97;;;11.60;43.20;;;;;;4372612;32;20078;-60
2021/04/26 07:00:48;;;;;;;5.18;2.58;;;11.30;43.20;;;;;;4377316;32;20085;-61
2021/04/26 07:03:14;;;;;;;5.75;3.05;;;11.70;43.00;;;;;;4377125;32;20141;-60
2021/04/26 07:05:41;;;;;;;6.00;2.90;;;11.90;42.50;;;;;;4352211;32;20081;-60
2021/04/26 07:08:07;;;;;;;7.37;2.60;;;12.00;40.90;;;;;;4389242;32;20074;-62
2021/04/26 07:10:33;;;;;;;5.47;3.28;;;11.80;40.70;;;;;;4364655;32;20069;-60
2021/04/26 07:13:03;;;;;;;8.15;2.80;;;11.60;41.10;;;;;;4377310;32;20528;-61
2021/04/26 07:15:29;;;;;;;4.57;2.62;;;11.60;40.30;;;;;;4363506;32;20062;-60
2021/04/26 07:18:02;;;;;;;5.45;2.95;;;11.90;40.00;;;;;;4350389;32;20063;-60
2021/04/26 07:20:29;;;;;;;4.72;2.40;;;11.80;40.30;;;;;;4351837;32;20093;-61
2021/04/26 07:22:55;;;;;;;4.75;2.60;;;11.90;39.70;;;;;;4340920;32;20082;-60
2021/04/26 07:25:21;;;;;;;9.98;2.80;;;12.20;39.40;;;;;;4377694;32;20073;-61
2021/04/26 07:27:47;;;;;;;3.42;2.42;;;12.50;39.50;;;;;;4353901;32;20058;-63
2021/04/26 07:30:15;;;;;;;5.62;2.15;;;12.70;39.00;;;;;;4368783;32;20065;-60
2021/04/26 07:32:41;;;;;;;12.70;3.83;;;12.40;38.60;;;;;;4357679;32;20070;-61
2021/04/26 07:35:11;;;;;;;3.30;2.30;;;12.80;39.40;;;;;;4380648;32;20082;-61
2021/04/26 07:37:38;;;;;;;4.18;2.40;;;12.60;38.30;;;;;;4365374;32;20159;-61
2021/04/26 07:40:07;;;;;;;7.12;2.70;;;12.90;38.90;;;;;;4352145;32;20135;-61
2021/04/26 07:42:35;;;;;;;5.97;2.78;;;12.80;37.70;;;;;;4367147;32;20095;-63
2021/04/26 07:45:03;;;;;;;5.53;2.70;;;12.00;38.50;;;;;;4390931;32;20538;-58
2021/04/26 07:47:29;;;;;;;4.70;2.65;;;12.40;38.50;;;;;;4379755;32;20074;-58
2021/04/26 07:49:55;;;;;;;5.80;2.28;;;12.70;37.60;;;;;;4379570;32;20181;-58
2021/04/26 07:52:22;;;;;;;4.18;2.40;;;11.90;38.40;;;;;;4379020;32;20146;-58
2021/04/26 07:54:48;;;;;;;3.62;2.20;;;12.00;38.40;;;;;;4379545;32;20171;-58
2021/04/26 07:57:14;;;;;;;5.20;2.50;;;12.20;37.70;;;;;;4379613;32;20069;-59
2021/04/26 07:59:43;;;;;;;3.10;1.85;;;12.70;37.50;;;;;;4378024;32;20590;-56
2021/04/26 08:02:09;;;;;;;4.07;2.30;;;12.90;36.90;;;;;;4366720;32;20094;-56
2021/04/26 08:04:36;;;;;;;3.92;2.17;;;12.90;36.00;;;;;;4389496;32;20166;-57
2021/04/26 08:07:02;;;;;;;2.45;1.30;;;13.10;35.20;;;;;;4374475;32;20077;-57
2021/04/26 08:09:28;;;;;;;4.25;2.30;;;13.30;33.80;;;;;;4327599;32;20059;-57
2021/04/26 08:11:55;;;;;;;4.68;1.85;;;13.50;34.00;;;;;;4378604;32;20142;-58
2021/04/26 08:14:21;;;;;;;4.87;2.25;;;13.40;33.40;;;;;;4372830;32;20065;-59
2021/04/26 08:16:47;;;;;;;3.22;2.08;;;13.10;32.60;;;;;;4392686;32;20085;-59
2021/04/26 08:19:15;;;;;;;2.80;2.08;;;12.90;32.50;;;;;;4367865;32;20058;-59
2021/04/26 08:21:41;;;;;;;5.03;2.03;;;13.30;32.60;;;;;;4382695;32;20145;-57
2021/04/26 08:24:08;;;;;;;4.65;2.30;;;13.40;33.20;;;;;;4384494;32;20104;-56
2021/04/26 08:26:34;;;;;;;7.20;2.30;;;13.70;32.20;;;;;;4373235;32;20098;-59
2021/04/26 08:29:00;;;;;;;9.85;2.30;;;13.00;32.50;;;;;;4384643;32;20086;-58
2021/04/26 08:31:27;;;;;;;6.55;2.58;;;13.60;33.10;;;;;;4363086;32;20081;-59
2021/04/26 08:33:53;;;;;;;9.15;2.30;;;13.30;32.60;;;;;;4373250;32;20581;-58
2021/04/26 08:36:19;;;;;;;3.87;1.80;;;13.50;31.50;;;;;;4374491;32;20134;-57
2021/04/26 08:38:45;;;;;;;4.68;1.98;;;13.30;31.30;;;;;;4378472;32;20507;-56
2021/04/26 08:41:13;;;;;;;4.70;2.17;;;13.30;31.60;;;;;;4362074;32;20547;-58
2021/04/26 08:43:45;;;;;;;4.03;2.03;;;13.50;31.40;;;;;;4360965;32;20097;-58
2021/04/26 08:46:11;;;;;;;2.17;1.70;;;13.50;30.70;;;;;;4378507;32;20102;-59
2021/04/26 08:48:37;;;;;;;3.20;2.08;;;13.30;30.80;;;;;;4372275;32;20572;-58
2021/04/26 08:51:05;;;;;;;3.90;1.98;;;13.40;31.00;;;;;;4376982;32;20109;-58
2021/04/26 08:53:32;;;;;;;5.43;2.15;;;13.60;30.70;;;;;;4369401;32;20068;-59
2021/04/26 08:55:59;;;;;;;1.80;1.50;;;14.00;30.50;;;;;;4375217;32;20074;-60
2021/04/26 08:58:29;;;;;;;4.70;2.10;;;13.50;30.50;;;;;;4375661;32;20226;-58
2021/04/26 09:00:55;;;;;;;2.95;2.00;;;13.50;30.60;;;;;;4376265;32;20082;-59
2021/04/26 09:03:31;;;;;;;7.47;2.35;;;13.70;30.20;;;;;;4352994;32;20086;-60
2021/04/26 09:05:57;;;;;;;10.82;2.35;;;13.80;30.70;;;;;;4351830;32;20098;-58
2021/04/26 09:08:24;;;;;;;7.35;2.20;;;13.90;30.30;;;;;;4361020;32;20074;-59
2021/04/26 09:10:52;;;;;;;2.17;1.85;;;14.40;29.90;;;;;;4364127;32;20066;-58
2021/04/26 09:13:49;;;;;;;4.43;2.15;;;14.60;29.90;;;;;;4377636;32;20088;-58
2021/04/26 09:16:26;;;;;;;3.58;2.30;;;14.20;29.90;;;;;;4383843;32;20453;-60
2021/04/26 09:18:59;;;;;;;3.75;2.58;;;14.50;29.90;;;;;;4377123;32;20086;-61
2021/04/26 09:21:33;;;;;;;4.78;2.22;;;14.00;30.00;;;;;;4385053;32;20432;-59
2021/04/26 09:24:24;;;;;;;3.78;2.10;;;14.20;30.20;;;;;;4381127;32;20215;-59
2021/04/26 09:27:14;;;;;;;3.85;2.47;;;13.90;30.00;;;;;;4380734;32;20121;-59
2021/04/26 09:29:40;;;;;;;5.18;2.60;;;14.20;30.00;;;;;;4353463;32;20074;-56
2021/04/26 09:32:18;;;;;;;2.97;2.00;;;14.50;30.00;;;;;;4346679;32;20085;-58
2021/04/26 09:34:50;;;;;;;5.03;2.00;;;14.40;29.60;;;;;;4365590;32;20175;-62
2021/04/26 09:37:19;;;;;;;6.72;2.37;;;14.00;29.50;;;;;;4371394;32;20090;-58
2021/04/26 09:40:11;;;;;;;4.53;2.37;;;14.70;30.20;;;;;;4350245;32;20086;-58
2021/04/26 09:42:50;;;;;;;7.45;2.85;;;14.40;29.90;;;;;;4381002;32;20089;-59
2021/04/26 09:45:37;;;;;;;5.87;2.53;;;14.10;29.40;;;;;;4372801;32;20447;-60
2021/04/26 09:48:20;;;;;;;2.28;1.90;;;14.10;30.10;;;;;;4366528;32;20062;-59
2021/04/26 09:51:20;;;;;;;4.32;2.45;;;14.40;30.10;;;;;;4346817;32;20476;-61
2021/04/26 09:53:53;;;;;;;4.55;2.45;;;14.20;29.60;;;;;;4372684;32;20524;-60
2021/04/26 09:56:30;;;;;;;5.35;2.42;;;14.60;29.20;;;;;;4376717;32;20055;-60
2021/04/26 09:59:02;;;;;;;9.75;2.55;;;15.10;29.60;;;;;;4360666;32;20077;-60
2021/04/26 10:01:31;;;;;;;6.50;2.40;;;14.90;29.70;;;;;;4374626;32;20093;-63
2021/04/26 10:03:58;;;;;;;4.60;2.50;;;14.50;29.60;;;;;;4347144;32;20095;-63
2021/04/26 10:06:25;;;;;;;5.82;2.28;;;14.10;29.70;;;;;;4344013;32;20093;-61
2021/04/26 10:08:54;;;;;;;3.80;2.22;;;14.90;30.20;;;;;;4362769;32;20062;-61
2021/04/26 10:11:23;;;;;;;7.78;2.70;;;14.80;29.40;;;;;;4373189;32;20142;-60
2021/04/26 10:13:50;;;;;;;6.25;2.40;;;15.10;29.40;;;;;;4354828;32;20078;-61
2021/04/26 10:16:38;;;;;;;7.62;2.62;;;15.00;28.70;;;;;;4367882;32;20117;-63
2021/04/26 10:19:05;;;;;;;6.78;2.50;;;14.80;29.60;;;;;;4350153;32;20065;-64
2021/04/26 10:21:33;;;;;;;3.97;2.50;;;14.80;28.90;;;;;;4338775;32;20106;-64
2021/04/26 10:24:18;;;;;;;7.22;2.50;;;15.20;28.40;;;;;;4364453;32;20066;-64
2021/04/26 10:26:51;;;;;;;9.35;2.80;;;15.20;28.80;;;;;;4372932;32;20063;-60
2021/04/26 10:29:38;;;;;;;3.95;2.33;;;15.30;28.70;;;;;;4365881;32;20098;-61
2021/04/26 10:32:10;;;;;;;4.07;2.30;;;14.70;28.60;;;;;;4374376;32;20070;-65
2021/04/26 10:34:39;;;;;;;4.78;2.37;;;15.20;28.90;;;;;;4362273;32;20455;-62
2021/04/26 10:37:26;;;;;;;3.58;2.45;;;15.10;29.00;;;;;;4382544;32;20572;-59
2021/04/26 10:39:58;;;;;;;7.78;2.67;;;14.70;29.30;;;;;;4380985;32;20153;-60
2021/04/26 10:42:56;;;;;;;5.43;2.37;;;15.40;29.50;;;;;;4377386;32;20093;-59
2021/04/26 10:45:27;;;;;;;3.00;2.17;;;14.70;31.00;;;;;;4379910;32;20062;-61
2021/04/26 10:48:05;;;;;;;7.40;2.78;;;14.70;28.90;;;;;;4345342;32;20544;-59
2021/04/26 10:50:50;;;;;;;5.75;2.08;;;14.50;29.80;;;;;;4373609;32;20094;-59
2021/04/26 10:53:16;;;;;;;4.25;2.35;;;14.80;29.50;;;;;;4385617;32;20170;-58
2021/04/26 10:55:47;;;;;;;4.03;2.67;;;14.80;29.60;;;;;;4378467;32;20059;-60
2021/04/26 10:58:26;;;;;;;4.75;2.20;;;14.90;29.70;;;;;;4369159;32;20157;-59
2021/04/26 11:00:53;;;;;;;4.93;2.40;;;14.80;29.30;;;;;;4362595;32;20065;-59
2021/04/26 11:03:24;;;;;;;3.83;2.15;;;14.90;28.70;;;;;;4373500;32;20766;-59
2021/04/26 11:05:54;;;;;;;3.03;2.55;;;14.80;29.20;;;;;;4368825;32;20093;-62
2021/04/26 11:08:29;;;;;;;7.20;3.05;;;15.10;29.20;;;;;;4378786;32;20090;-58
2021/04/26 11:11:30;;;;;;;3.58;1.95;;;14.80;29.40;;;;;;4365296;32;20150;-57
2021/04/26 11:13:53;;;;;;;;;;;14.70;29.10;;;;;;4383160;32;20077;-59
2021/04/26 11:16:30;;;;;;;4.93;2.20;;;14.90;28.90;;;;;;4369728;32;19992;-60
2021/04/26 11:18:59;;;;;;;2.40;1.75;;;15.10;29.00;;;;;;4373197;32;20097;-60
2021/04/26 11:21:44;;;;;;;6.10;2.03;;;14.70;29.50;;;;;;4387516;32;20159;-56
2021/04/26 11:24:32;;;;;;;3.83;2.00;;;15.00;29.30;;;;;;4382030;32;20217;-58
2021/04/26 11:27:11;;;;;;;3.83;2.15;;;15.10;29.20;;;;;;4354480;32;20456;-59
2021/04/26 11:29:44;;;;;;;4.07;2.03;;;15.30;28.50;;;;;;4388094;32;20066;-59
2021/04/26 11:32:15;;;;;;;8.05;2.67;;;16.10;28.30;;;;;;4372278;32;20223;-58
2021/04/26 11:34:47;;;;;;;7.97;2.50;;;15.70;27.60;;;;;;4362020;32;20082;-57
2021/04/26 11:37:18;;;;;;;4.97;2.40;;;15.70;28.30;;;;;;4372187;32;20186;-55
2021/04/26 11:39:44;;;;;;;6.40;2.60;;;14.80;28.80;;;;;;4370716;32;20124;-57
2021/04/26 11:42:18;;;;;;;7.20;2.35;;;15.00;28.80;;;;;;4364257;32;20455;-57
2021/04/26 11:44:45;;;;;;;3.45;1.92;;;15.30;28.40;;;;;;4359779;32;20139;-58
2021/04/26 11:47:15;;;;;;;3.78;2.50;;;15.20;28.00;;;;;;4361028;32;20071;-56
2021/04/26 11:49:53;;;;;;;5.55;2.30;;;15.60;28.10;;;;;;4359536;32;20061;-59
2021/04/26 11:52:20;;;;;;;4.05;2.30;;;15.40;28.50;;;;;;4368847;32;20156;-56
2021/04/26 11:54:48;;;;;;;3.95;2.08;;;16.30;27.40;;;;;;4369760;32;20077;-57
2021/04/26 11:57:19;;;;;;;5.07;1.87;;;15.70;27.20;;;;;;4363347;32;20082;-57
2021/04/26 11:59:52;;;;;;;4.60;2.15;;;15.80;27.80;;;;;;4366553;32;20061;-60
2021/04/26 12:02:26;;;;;;;4.72;2.28;;;15.10;27.80;;;;;;4363031;32;20090;-60
2021/04/26 12:04:52;;;;;;;3.78;1.80;;;15.50;28.20;;;;;;4355918;32;20077;-60
2021/04/26 12:07:18;;;;;;;3.58;2.05;;;15.50;27.80;;;;;;4362382;32;20451;-65
2021/04/26 12:10:05;;;;;;;4.35;2.00;;;15.40;27.80;;;;;;4382894;32;20069;-62
2021/04/26 12:12:33;;;;;;;2.50;1.80;;;15.30;27.20;;;;;;4373724;32;20698;-64
2021/04/26 12:15:03;;;;;;;4.35;1.92;;;15.20;28.40;;;;;;4382669;32;20149;-61
2021/04/26 12:17:31;;;;;;;5.40;2.03;;;15.50;27.10;;;;;;4390040;32;20093;-65
2021/04/26 12:19:58;;;;;;;4.00;1.92;;;15.30;27.90;;;;;;4372367;32;20080;-61
2021/04/26 12:22:25;;;;;;;3.90;1.80;;;15.70;27.80;;;;;;4359166;32;20093;-60
2021/04/26 12:24:54;;;;;;;2.08;1.65;;;15.30;27.30;;;;;;4364491;32;20505;-62
2021/04/26 12:27:32;;;;;;;3.70;2.10;;;15.60;28.00;;;;;;4375241;32;20086;-63
2021/04/26 12:30:14;;;;;;;6.12;2.00;;;15.70;27.80;;;;;;4377132;32;20532;-61
2021/04/26 12:32:40;;;;;;;5.05;2.10;;;14.70;28.60;;;;;;4362232;32;20576;-62
2021/04/26 12:35:10;;;;;;;7.82;2.62;;;14.90;28.50;;;;;;4361385;32;20093;-59
2021/04/26 12:37:42;;;;;;;3.22;2.10;;;15.20;28.30;;;;;;4376515;32;20457;-62
2021/04/26 12:40:22;;;;;;;2.60;1.98;;;15.20;28.50;;;;;;4363301;32;20089;-60
2021/04/26 12:42:52;;;;;;;7.22;1.80;;;15.60;28.10;;;;;;4366082;32;20073;-61
2021/04/26 12:45:35;;;;;;;4.93;2.37;;;15.10;28.20;;;;;;4380126;32;20109;-60
2021/04/26 12:48:03;;;;;;;4.00;1.87;;;15.00;28.30;;;;;;4366436;32;20066;-63
2021/04/26 12:50:39;;;;;;;8.20;2.20;;;15.00;28.20;;;;;;4371712;32;20117;-61
2021/04/26 12:53:20;;;;;;;6.53;1.83;;;15.50;28.40;;;;;;4355399;32;20061;-59
2021/04/26 12:55:54;;;;;;;3.95;1.98;;;15.80;28.80;;;;;;4372476;32;20097;-61
2021/04/26 12:58:30;;;;;;;6.47;2.35;;;15.30;27.80;;;;;;4379883;32;20070;-61
2021/04/26 13:01:13;;;;;;;3.70;1.77;;;15.10;28.40;;;;;;4382055;32;20078;-61
2021/04/26 13:03:47;;;;;;;3.70;1.80;;;14.90;28.60;;;;;;4385070;32;20150;-62
2021/04/26 13:06:15;;;;;;;3.37;1.92;;;15.30;28.30;;;;;;4386375;32;20078;-58